sensor_id;sensor_type;location;lat;lon;timestamp;P1;durP1;ratioP1;P2;durP2;ratioP2
75628;SDS011;64213;46.452;16.994;2023-08-31T00:02:59;5.53;;;1.30;;
75628;SDS011;64213;46.452;16.994;2023-08-31T00:06:02;5.62;;;1.20;;
75628;SDS011;64213;46.452;16.994;2023-08-31T00:09:09;7.47;;;1.30;;
75628;SDS011;64213;46.452;16.994;2023-08-31T00:12:11;7.03;;;1.23;;
75628;SDS011;64213;46.452;16.994;2023-08-31T00:15:13;5.22;;;1.33;;
75628;SDS011;64213;46.452;16.994;2023-08-31T00:18:15;4.95;;;1.30;;
75628;SDS011;64213;46.452;16.994;2023-08-31T00:21:18;5.85;;;1.50;;
75628;SDS011;64213;46.452;16.994;2023-08-31T00:24:20;6.12;;;1.80;;
75628;SDS011;64213;46.452;16.994;2023-08-31T00:27:23;5.20;;;1.30;;
75628;SDS011;64213;46.452;16.994;2023-08-31T00:30:25;6.07;;;1.35;;
75628;SDS011;64213;46.452;16.994;2023-08-31T00:33:31;5.12;;;1.30;;
75628;SDS011;64213;46.452;16.994;2023-08-31T00:36:35;5.78;;;1.30;;
75628;SDS011;64213;46.452;16.994;2023-08-31T00:39:37;5.28;;;1.30;;
75628;SDS011;64213;46.452;16.994;2023-08-31T00:42:39;5.30;;;1.30;;
75628;SDS011;64213;46.452;16.994;2023-08-31T00:45:42;6.30;;;1.27;;
75628;SDS011;64213;46.452;16.994;2023-08-31T00:48:46;5.37;;;1.20;;
75628;SDS011;64213;46.452;16.994;2023-08-31T00:51:48;4.40;;;1.10;;
75628;SDS011;64213;46.452;16.994;2023-08-31T00:54:52;4.82;;;1.08;;
75628;SDS011;64213;46.452;16.994;2023-08-31T00:57:55;5.90;;;1.20;;
75628;SDS011;64213;46.452;16.994;2023-08-31T01:14:17;5.07;;;1.00;;
75628;SDS011;64213;46.452;16.994;2023-08-31T01:17:21;4.22;;;1.00;;
75628;SDS011;64213;46.452;16.994;2023-08-31T01:20:32;5.28;;;1.50;;
75628;SDS011;64213;46.452;16.994;2023-08-31T01:24:00;5.30;;;1.50;;
75628;SDS011;64213;46.452;16.994;2023-08-31T01:27:03;5.07;;;1.27;;
75628;SDS011;64213;46.452;16.994;2023-08-31T01:30:05;5.37;;;1.10;;
75628;SDS011;64213;46.452;16.994;2023-08-31T01:33:08;5.12;;;1.27;;
75628;SDS011;64213;46.452;16.994;2023-08-31T01:36:20;6.30;;;1.23;;
75628;SDS011;64213;46.452;16.994;2023-08-31T01:39:36;6.05;;;1.67;;
75628;SDS011;64213;46.452;16.994;2023-08-31T01:42:44;6.07;;;1.42;;
75628;SDS011;64213;46.452;16.994;2023-08-31T01:45:48;5.83;;;1.47;;
75628;SDS011;64213;46.452;16.994;2023-08-31T01:48:51;7.32;;;1.80;;
75628;SDS011;64213;46.452;16.994;2023-08-31T01:51:53;6.25;;;1.60;;
75628;SDS011;64213;46.452;16.994;2023-08-31T01:54:55;5.95;;;1.70;;
75628;SDS011;64213;46.452;16.994;2023-08-31T01:57:58;6.57;;;1.50;;
75628;SDS011;64213;46.452;16.994;2023-08-31T02:01:00;6.20;;;1.70;;
75628;SDS011;64213;46.452;16.994;2023-08-31T02:04:02;8.30;;;1.67;;
75628;SDS011;64213;46.452;16.994;2023-08-31T02:07:05;5.68;;;1.60;;
75628;SDS011;64213;46.452;16.994;2023-08-31T02:10:07;6.68;;;1.90;;
75628;SDS011;64213;46.452;16.994;2023-08-31T02:13:11;5.65;;;1.80;;
75628;SDS011;64213;46.452;16.994;2023-08-31T02:16:15;5.80;;;1.60;;
75628;SDS011;64213;46.452;16.994;2023-08-31T02:19:17;5.43;;;1.50;;
75628;SDS011;64213;46.452;16.994;2023-08-31T02:22:19;6.60;;;1.50;;
75628;SDS011;64213;46.452;16.994;2023-08-31T02:25:22;10.98;;;1.70;;
75628;SDS011;64213;46.452;16.994;2023-08-31T02:28:24;6.50;;;1.77;;
75628;SDS011;64213;46.452;16.994;2023-08-31T02:31:26;6.10;;;1.53;;
75628;SDS011;64213;46.452;16.994;2023-08-31T02:34:28;6.30;;;1.60;;
75628;SDS011;64213;46.452;16.994;2023-08-31T02:37:30;8.55;;;1.70;;
75628;SDS011;64213;46.452;16.994;2023-08-31T02:40:33;8.23;;;1.92;;
75628;SDS011;64213;46.452;16.994;2023-08-31T02:43:36;9.05;;;1.80;;
75628;SDS011;64213;46.452;16.994;2023-08-31T02:46:38;7.10;;;2.17;;
75628;SDS011;64213;46.452;16.994;2023-08-31T02:49:40;6.30;;;1.90;;
75628;SDS011;64213;46.452;16.994;2023-08-31T02:52:42;6.28;;;1.92;;
75628;SDS011;64213;46.452;16.994;2023-08-31T02:59:24;7.22;;;1.85;;
75628;SDS011;64213;46.452;16.994;2023-08-31T03:02:26;6.30;;;1.50;;
75628;SDS011;64213;46.452;16.994;2023-08-31T03:05:28;7.32;;;2.47;;
75628;SDS011;64213;46.452;16.994;2023-08-31T03:08:35;6.82;;;2.00;;
75628;SDS011;64213;46.452;16.994;2023-08-31T03:15:54;7.72;;;1.85;;
75628;SDS011;64213;46.452;16.994;2023-08-31T03:18:58;8.23;;;1.97;;
75628;SDS011;64213;46.452;16.994;2023-08-31T03:22:00;9.73;;;2.10;;
75628;SDS011;64213;46.452;16.994;2023-08-31T03:25:02;6.20;;;1.83;;
75628;SDS011;64213;46.452;16.994;2023-08-31T03:28:05;7.55;;;1.95;;
75628;SDS011;64213;46.452;16.994;2023-08-31T03:31:07;6.25;;;1.80;;
75628;SDS011;64213;46.452;16.994;2023-08-31T03:34:09;6.63;;;1.80;;
75628;SDS011;64213;46.452;16.994;2023-08-31T03:37:12;6.43;;;2.00;;
75628;SDS011;64213;46.452;16.994;2023-08-31T03:40:15;7.57;;;1.85;;
75628;SDS011;64213;46.452;16.994;2023-08-31T03:43:17;9.07;;;1.70;;
75628;SDS011;64213;46.452;16.994;2023-08-31T03:46:19;8.90;;;1.83;;
75628;SDS011;64213;46.452;16.994;2023-08-31T03:49:21;6.20;;;1.63;;
75628;SDS011;64213;46.452;16.994;2023-08-31T03:52:23;8.32;;;2.00;;
75628;SDS011;64213;46.452;16.994;2023-08-31T03:55:25;6.65;;;2.03;;
75628;SDS011;64213;46.452;16.994;2023-08-31T03:58:27;7.43;;;2.10;;
75628;SDS011;64213;46.452;16.994;2023-08-31T04:01:29;7.00;;;2.00;;
75628;SDS011;64213;46.452;16.994;2023-08-31T04:04:32;8.70;;;1.80;;
75628;SDS011;64213;46.452;16.994;2023-08-31T04:07:35;6.70;;;1.85;;
75628;SDS011;64213;46.452;16.994;2023-08-31T04:10:37;6.95;;;1.90;;
75628;SDS011;64213;46.452;16.994;2023-08-31T04:13:40;6.15;;;1.70;;
75628;SDS011;64213;46.452;16.994;2023-08-31T04:16:42;7.57;;;1.80;;
75628;SDS011;64213;46.452;16.994;2023-08-31T04:19:44;7.57;;;1.50;;
75628;SDS011;64213;46.452;16.994;2023-08-31T04:22:46;8.00;;;1.60;;
75628;SDS011;64213;46.452;16.994;2023-08-31T04:25:48;7.97;;;2.03;;
75628;SDS011;64213;46.452;16.994;2023-08-31T04:28:53;6.87;;;2.00;;
75628;SDS011;64213;46.452;16.994;2023-08-31T04:31:55;7.43;;;1.87;;
75628;SDS011;64213;46.452;16.994;2023-08-31T04:34:57;6.83;;;2.03;;
75628;SDS011;64213;46.452;16.994;2023-08-31T04:37:59;8.32;;;1.90;;
75628;SDS011;64213;46.452;16.994;2023-08-31T04:41:02;7.00;;;1.85;;
75628;SDS011;64213;46.452;16.994;2023-08-31T04:44:04;6.60;;;1.75;;
75628;SDS011;64213;46.452;16.994;2023-08-31T04:47:06;7.32;;;1.90;;
75628;SDS011;64213;46.452;16.994;2023-08-31T04:50:08;6.00;;;1.53;;
75628;SDS011;64213;46.452;16.994;2023-08-31T04:53:11;6.97;;;1.87;;
75628;SDS011;64213;46.452;16.994;2023-08-31T04:56:13;5.90;;;1.50;;
75628;SDS011;64213;46.452;16.994;2023-08-31T04:59:17;7.05;;;1.80;;
75628;SDS011;64213;46.452;16.994;2023-08-31T05:02:19;6.20;;;1.70;;
75628;SDS011;64213;46.452;16.994;2023-08-31T05:05:21;6.07;;;1.80;;
75628;SDS011;64213;46.452;16.994;2023-08-31T05:08:23;6.80;;;1.70;;
75628;SDS011;64213;46.452;16.994;2023-08-31T05:11:25;8.00;;;1.65;;
75628;SDS011;64213;46.452;16.994;2023-08-31T05:14:27;7.20;;;1.67;;
75628;SDS011;64213;46.452;16.994;2023-08-31T05:17:30;6.30;;;1.62;;
75628;SDS011;64213;46.452;16.994;2023-08-31T05:20:32;8.47;;;2.33;;
75628;SDS011;64213;46.452;16.994;2023-08-31T05:23:35;6.20;;;1.60;;
75628;SDS011;64213;46.452;16.994;2023-08-31T05:26:38;6.40;;;1.67;;
75628;SDS011;64213;46.452;16.994;2023-08-31T05:29:41;5.82;;;1.30;;
75628;SDS011;64213;46.452;16.994;2023-08-31T05:32:43;10.10;;;1.92;;
75628;SDS011;64213;46.452;16.994;2023-08-31T05:35:45;6.00;;;1.60;;
75628;SDS011;64213;46.452;16.994;2023-08-31T05:38:47;6.20;;;1.62;;
75628;SDS011;64213;46.452;16.994;2023-08-31T05:41:50;6.15;;;1.77;;
75628;SDS011;64213;46.452;16.994;2023-08-31T05:44:52;6.22;;;1.60;;
75628;SDS011;64213;46.452;16.994;2023-08-31T05:47:54;7.00;;;1.92;;
75628;SDS011;64213;46.452;16.994;2023-08-31T05:50:56;6.90;;;1.80;;
75628;SDS011;64213;46.452;16.994;2023-08-31T05:53:59;6.00;;;1.50;;
75628;SDS011;64213;46.452;16.994;2023-08-31T05:57:02;8.85;;;1.83;;
75628;SDS011;64213;46.452;16.994;2023-08-31T06:00:05;6.75;;;1.90;;
75628;SDS011;64213;46.452;16.994;2023-08-31T06:03:10;6.78;;;1.80;;
75628;SDS011;64213;46.452;16.994;2023-08-31T06:06:13;7.10;;;1.60;;
75628;SDS011;64213;46.452;16.994;2023-08-31T06:09:16;6.28;;;1.90;;
75628;SDS011;64213;46.452;16.994;2023-08-31T06:12:18;5.37;;;1.50;;
75628;SDS011;64213;46.452;16.994;2023-08-31T06:15:20;6.53;;;1.80;;
75628;SDS011;64213;46.452;16.994;2023-08-31T06:18:22;6.40;;;1.77;;
75628;SDS011;64213;46.452;16.994;2023-08-31T06:21:24;6.73;;;1.80;;
75628;SDS011;64213;46.452;16.994;2023-08-31T06:24:26;6.20;;;1.62;;
75628;SDS011;64213;46.452;16.994;2023-08-31T06:27:28;6.87;;;2.30;;
75628;SDS011;64213;46.452;16.994;2023-08-31T06:30:30;5.53;;;1.55;;
75628;SDS011;64213;46.452;16.994;2023-08-31T06:33:33;6.30;;;1.60;;
75628;SDS011;64213;46.452;16.994;2023-08-31T06:36:35;6.17;;;1.60;;
75628;SDS011;64213;46.452;16.994;2023-08-31T06:39:37;8.75;;;3.55;;
75628;SDS011;64213;46.452;16.994;2023-08-31T06:42:39;5.95;;;1.75;;
75628;SDS011;64213;46.452;16.994;2023-08-31T06:45:41;5.87;;;1.55;;
75628;SDS011;64213;46.452;16.994;2023-08-31T06:48:44;6.70;;;1.40;;
75628;SDS011;64213;46.452;16.994;2023-08-31T06:51:46;5.87;;;1.67;;
75628;SDS011;64213;46.452;16.994;2023-08-31T06:58:07;7.00;;;1.98;;
75628;SDS011;64213;46.452;16.994;2023-08-31T07:01:11;6.93;;;1.70;;
75628;SDS011;64213;46.452;16.994;2023-08-31T07:04:14;6.82;;;2.08;;
75628;SDS011;64213;46.452;16.994;2023-08-31T07:07:16;7.00;;;2.17;;
75628;SDS011;64213;46.452;16.994;2023-08-31T07:10:19;7.03;;;1.60;;
75628;SDS011;64213;46.452;16.994;2023-08-31T07:13:21;7.62;;;2.00;;
75628;SDS011;64213;46.452;16.994;2023-08-31T07:16:23;7.57;;;1.80;;
75628;SDS011;64213;46.452;16.994;2023-08-31T07:19:25;7.20;;;1.70;;
75628;SDS011;64213;46.452;16.994;2023-08-31T07:22:28;8.37;;;1.97;;
75628;SDS011;64213;46.452;16.994;2023-08-31T07:25:30;6.40;;;1.98;;
75628;SDS011;64213;46.452;16.994;2023-08-31T07:28:33;6.80;;;1.70;;
75628;SDS011;64213;46.452;16.994;2023-08-31T07:31:35;6.40;;;1.50;;
75628;SDS011;64213;46.452;16.994;2023-08-31T07:34:37;9.43;;;1.80;;
75628;SDS011;64213;46.452;16.994;2023-08-31T07:37:40;6.00;;;1.50;;
75628;SDS011;64213;46.452;16.994;2023-08-31T07:40:43;6.78;;;1.98;;
75628;SDS011;64213;46.452;16.994;2023-08-31T07:43:45;6.07;;;1.80;;
75628;SDS011;64213;46.452;16.994;2023-08-31T07:47:04;8.07;;;1.60;;
75628;SDS011;64213;46.452;16.994;2023-08-31T07:50:07;5.80;;;1.65;;
75628;SDS011;64213;46.452;16.994;2023-08-31T07:53:10;6.50;;;1.80;;
75628;SDS011;64213;46.452;16.994;2023-08-31T07:56:14;5.90;;;1.40;;
75628;SDS011;64213;46.452;16.994;2023-08-31T07:59:16;7.15;;;1.67;;
75628;SDS011;64213;46.452;16.994;2023-08-31T08:02:19;6.05;;;1.40;;
75628;SDS011;64213;46.452;16.994;2023-08-31T08:05:21;6.00;;;1.65;;
75628;SDS011;64213;46.452;16.994;2023-08-31T08:08:24;5.60;;;1.50;;
75628;SDS011;64213;46.452;16.994;2023-08-31T08:11:26;7.35;;;1.40;;
75628;SDS011;64213;46.452;16.994;2023-08-31T08:14:28;6.45;;;2.03;;
75628;SDS011;64213;46.452;16.994;2023-08-31T08:17:30;6.78;;;1.73;;
75628;SDS011;64213;46.452;16.994;2023-08-31T08:20:33;6.12;;;1.52;;
75628;SDS011;64213;46.452;16.994;2023-08-31T08:23:35;5.87;;;1.60;;
75628;SDS011;64213;46.452;16.994;2023-08-31T08:26:37;5.90;;;1.67;;
75628;SDS011;64213;46.452;16.994;2023-08-31T08:29:39;6.15;;;1.70;;
75628;SDS011;64213;46.452;16.994;2023-08-31T08:32:41;6.30;;;1.65;;
75628;SDS011;64213;46.452;16.994;2023-08-31T08:35:44;6.53;;;1.77;;
75628;SDS011;64213;46.452;16.994;2023-08-31T08:38:47;6.03;;;1.73;;
75628;SDS011;64213;46.452;16.994;2023-08-31T08:41:49;6.47;;;1.90;;
75628;SDS011;64213;46.452;16.994;2023-08-31T08:44:52;5.68;;;1.60;;
75628;SDS011;64213;46.452;16.994;2023-08-31T08:47:55;6.72;;;1.90;;
75628;SDS011;64213;46.452;16.994;2023-08-31T08:50:59;5.85;;;1.90;;
75628;SDS011;64213;46.452;16.994;2023-08-31T08:54:03;5.80;;;1.87;;
75628;SDS011;64213;46.452;16.994;2023-08-31T08:57:05;6.20;;;2.20;;
75628;SDS011;64213;46.452;16.994;2023-08-31T09:00:08;6.55;;;2.08;;
75628;SDS011;64213;46.452;16.994;2023-08-31T09:03:12;6.93;;;1.87;;
75628;SDS011;64213;46.452;16.994;2023-08-31T09:06:14;6.10;;;2.00;;
75628;SDS011;64213;46.452;16.994;2023-08-31T09:09:17;6.67;;;1.87;;
75628;SDS011;64213;46.452;16.994;2023-08-31T09:12:22;5.60;;;1.70;;
75628;SDS011;64213;46.452;16.994;2023-08-31T09:15:25;7.87;;;2.40;;
75628;SDS011;64213;46.452;16.994;2023-08-31T09:18:28;5.37;;;1.73;;
75628;SDS011;64213;46.452;16.994;2023-08-31T09:21:36;6.00;;;1.80;;
75628;SDS011;64213;46.452;16.994;2023-08-31T09:24:42;5.73;;;2.13;;
75628;SDS011;64213;46.452;16.994;2023-08-31T09:27:46;6.78;;;2.10;;
75628;SDS011;64213;46.452;16.994;2023-08-31T09:30:49;6.07;;;2.03;;
75628;SDS011;64213;46.452;16.994;2023-08-31T09:33:53;7.12;;;2.28;;
75628;SDS011;64213;46.452;16.994;2023-08-31T09:36:56;7.60;;;2.60;;
75628;SDS011;64213;46.452;16.994;2023-08-31T09:40:06;6.53;;;2.10;;
75628;SDS011;64213;46.452;16.994;2023-08-31T09:43:09;6.25;;;2.22;;
75628;SDS011;64213;46.452;16.994;2023-08-31T09:46:11;7.93;;;2.50;;
75628;SDS011;64213;46.452;16.994;2023-08-31T09:49:16;6.37;;;2.22;;
75628;SDS011;64213;46.452;16.994;2023-08-31T09:52:18;7.82;;;2.40;;
75628;SDS011;64213;46.452;16.994;2023-08-31T09:55:21;5.80;;;2.10;;
75628;SDS011;64213;46.452;16.994;2023-08-31T09:58:26;5.70;;;2.00;;
75628;SDS011;64213;46.452;16.994;2023-08-31T10:01:31;5.72;;;2.20;;
75628;SDS011;64213;46.452;16.994;2023-08-31T10:04:34;6.35;;;2.28;;
75628;SDS011;64213;46.452;16.994;2023-08-31T10:07:38;6.00;;;2.40;;
75628;SDS011;64213;46.452;16.994;2023-08-31T10:10:41;5.90;;;1.93;;
75628;SDS011;64213;46.452;16.994;2023-08-31T10:13:43;6.20;;;2.33;;
75628;SDS011;64213;46.452;16.994;2023-08-31T10:16:48;6.50;;;2.75;;
75628;SDS011;64213;46.452;16.994;2023-08-31T10:19:51;6.25;;;2.40;;
75628;SDS011;64213;46.452;16.994;2023-08-31T10:22:54;7.00;;;2.37;;
75628;SDS011;64213;46.452;16.994;2023-08-31T10:25:59;5.70;;;2.13;;
75628;SDS011;64213;46.452;16.994;2023-08-31T10:29:02;6.65;;;2.35;;
75628;SDS011;64213;46.452;16.994;2023-08-31T10:32:08;7.30;;;2.28;;
75628;SDS011;64213;46.452;16.994;2023-08-31T10:35:10;6.87;;;2.47;;
75628;SDS011;64213;46.452;16.994;2023-08-31T10:38:14;6.62;;;2.47;;
75628;SDS011;64213;46.452;16.994;2023-08-31T10:41:17;6.20;;;2.43;;
75628;SDS011;64213;46.452;16.994;2023-08-31T10:44:25;6.20;;;2.47;;
75628;SDS011;64213;46.452;16.994;2023-08-31T10:47:38;5.80;;;2.42;;
75628;SDS011;64213;46.452;16.994;2023-08-31T10:50:46;6.82;;;2.53;;
75628;SDS011;64213;46.452;16.994;2023-08-31T10:53:49;6.30;;;2.78;;
75628;SDS011;64213;46.452;16.994;2023-08-31T10:56:52;8.73;;;2.40;;
75628;SDS011;64213;46.452;16.994;2023-08-31T10:59:58;6.00;;;2.22;;
75628;SDS011;64213;46.452;16.994;2023-08-31T11:03:02;6.60;;;2.35;;
75628;SDS011;64213;46.452;16.994;2023-08-31T11:06:10;8.60;;;2.58;;
75628;SDS011;64213;46.452;16.994;2023-08-31T11:09:18;6.72;;;2.40;;
75628;SDS011;64213;46.452;16.994;2023-08-31T11:12:22;5.93;;;2.20;;
75628;SDS011;64213;46.452;16.994;2023-08-31T11:15:26;5.80;;;2.30;;
75628;SDS011;64213;46.452;16.994;2023-08-31T11:18:31;5.70;;;2.00;;
75628;SDS011;64213;46.452;16.994;2023-08-31T11:21:35;5.87;;;2.10;;
75628;SDS011;64213;46.452;16.994;2023-08-31T11:24:39;7.55;;;2.22;;
75628;SDS011;64213;46.452;16.994;2023-08-31T11:27:42;5.70;;;2.23;;
75628;SDS011;64213;46.452;16.994;2023-08-31T11:30:57;6.75;;;2.22;;
75628;SDS011;64213;46.452;16.994;2023-08-31T11:34:00;5.60;;;1.90;;
75628;SDS011;64213;46.452;16.994;2023-08-31T11:37:02;7.37;;;2.83;;
75628;SDS011;64213;46.452;16.994;2023-08-31T11:40:04;6.55;;;1.83;;
75628;SDS011;64213;46.452;16.994;2023-08-31T11:43:07;5.40;;;1.77;;
75628;SDS011;64213;46.452;16.994;2023-08-31T11:46:10;5.85;;;1.90;;
75628;SDS011;64213;46.452;16.994;2023-08-31T11:49:12;5.95;;;1.90;;
75628;SDS011;64213;46.452;16.994;2023-08-31T11:52:14;5.68;;;1.87;;
75628;SDS011;64213;46.452;16.994;2023-08-31T11:55:17;5.90;;;1.70;;
75628;SDS011;64213;46.452;16.994;2023-08-31T11:58:20;5.90;;;2.10;;
75628;SDS011;64213;46.452;16.994;2023-08-31T12:01:22;6.45;;;2.30;;
75628;SDS011;64213;46.452;16.994;2023-08-31T12:04:25;7.10;;;2.30;;
75628;SDS011;64213;46.452;16.994;2023-08-31T12:07:28;6.18;;;1.92;;
75628;SDS011;64213;46.452;16.994;2023-08-31T12:10:30;7.25;;;2.12;;
75628;SDS011;64213;46.452;16.994;2023-08-31T12:13:32;6.20;;;2.20;;
75628;SDS011;64213;46.452;16.994;2023-08-31T12:16:34;5.97;;;2.15;;
75628;SDS011;64213;46.452;16.994;2023-08-31T12:19:37;7.55;;;2.20;;
75628;SDS011;64213;46.452;16.994;2023-08-31T12:22:43;6.65;;;2.37;;
75628;SDS011;64213;46.452;16.994;2023-08-31T12:25:46;6.28;;;2.37;;
75628;SDS011;64213;46.452;16.994;2023-08-31T12:28:52;6.70;;;2.13;;
75628;SDS011;64213;46.452;16.994;2023-08-31T12:31:54;7.03;;;2.40;;
75628;SDS011;64213;46.452;16.994;2023-08-31T12:34:57;6.72;;;2.60;;
75628;SDS011;64213;46.452;16.994;2023-08-31T12:37:59;5.85;;;2.40;;
75628;SDS011;64213;46.452;16.994;2023-08-31T12:41:02;5.97;;;2.55;;
75628;SDS011;64213;46.452;16.994;2023-08-31T12:44:04;6.60;;;2.60;;
75628;SDS011;64213;46.452;16.994;2023-08-31T12:47:10;6.53;;;2.10;;
75628;SDS011;64213;46.452;16.994;2023-08-31T12:50:12;6.35;;;2.33;;
75628;SDS011;64213;46.452;16.994;2023-08-31T12:53:14;6.32;;;2.22;;
75628;SDS011;64213;46.452;16.994;2023-08-31T12:56:17;6.00;;;2.30;;
75628;SDS011;64213;46.452;16.994;2023-08-31T12:59:26;6.27;;;2.30;;
75628;SDS011;64213;46.452;16.994;2023-08-31T13:02:28;6.32;;;2.10;;
75628;SDS011;64213;46.452;16.994;2023-08-31T13:05:30;7.18;;;2.65;;
75628;SDS011;64213;46.452;16.994;2023-08-31T13:08:32;8.07;;;2.10;;
75628;SDS011;64213;46.452;16.994;2023-08-31T13:11:35;6.50;;;2.00;;
75628;SDS011;64213;46.452;16.994;2023-08-31T13:14:37;6.97;;;1.80;;
75628;SDS011;64213;46.452;16.994;2023-08-31T13:17:40;5.55;;;1.85;;
75628;SDS011;64213;46.452;16.994;2023-08-31T13:20:52;6.22;;;2.33;;
75628;SDS011;64213;46.452;16.994;2023-08-31T13:23:55;5.80;;;1.90;;
75628;SDS011;64213;46.452;16.994;2023-08-31T13:26:57;6.18;;;1.80;;
75628;SDS011;64213;46.452;16.994;2023-08-31T13:29:59;6.10;;;2.10;;
75628;SDS011;64213;46.452;16.994;2023-08-31T13:33:02;6.35;;;1.83;;
75628;SDS011;64213;46.452;16.994;2023-08-31T13:36:06;6.62;;;1.87;;
75628;SDS011;64213;46.452;16.994;2023-08-31T13:39:08;6.00;;;1.80;;
75628;SDS011;64213;46.452;16.994;2023-08-31T13:42:11;6.55;;;1.92;;
75628;SDS011;64213;46.452;16.994;2023-08-31T13:45:13;6.17;;;1.70;;
75628;SDS011;64213;46.452;16.994;2023-08-31T13:48:15;5.87;;;1.80;;
75628;SDS011;64213;46.452;16.994;2023-08-31T13:51:21;5.60;;;1.80;;
75628;SDS011;64213;46.452;16.994;2023-08-31T13:54:23;5.90;;;1.90;;
75628;SDS011;64213;46.452;16.994;2023-08-31T13:57:25;5.93;;;1.90;;
75628;SDS011;64213;46.452;16.994;2023-08-31T14:00:27;6.23;;;1.60;;
75628;SDS011;64213;46.452;16.994;2023-08-31T14:03:33;6.10;;;2.15;;
75628;SDS011;64213;46.452;16.994;2023-08-31T14:06:36;6.70;;;2.10;;
75628;SDS011;64213;46.452;16.994;2023-08-31T14:09:38;6.70;;;1.90;;
75628;SDS011;64213;46.452;16.994;2023-08-31T14:12:40;6.22;;;2.10;;
75628;SDS011;64213;46.452;16.994;2023-08-31T14:15:45;6.37;;;2.00;;
75628;SDS011;64213;46.452;16.994;2023-08-31T14:18:48;6.57;;;2.10;;
75628;SDS011;64213;46.452;16.994;2023-08-31T14:21:50;5.75;;;1.80;;
75628;SDS011;64213;46.452;16.994;2023-08-31T14:24:54;6.22;;;1.90;;
75628;SDS011;64213;46.452;16.994;2023-08-31T14:27:57;5.78;;;1.80;;
75628;SDS011;64213;46.452;16.994;2023-08-31T14:31:03;5.83;;;1.60;;
75628;SDS011;64213;46.452;16.994;2023-08-31T14:34:06;7.05;;;2.00;;
75628;SDS011;64213;46.452;16.994;2023-08-31T14:37:09;6.30;;;1.87;;
75628;SDS011;64213;46.452;16.994;2023-08-31T14:40:11;7.53;;;2.20;;
75628;SDS011;64213;46.452;16.994;2023-08-31T14:43:14;6.45;;;2.03;;
75628;SDS011;64213;46.452;16.994;2023-08-31T14:46:16;6.80;;;1.70;;
75628;SDS011;64213;46.452;16.994;2023-08-31T14:49:21;5.50;;;1.80;;
75628;SDS011;64213;46.452;16.994;2023-08-31T14:52:24;5.68;;;1.73;;
75628;SDS011;64213;46.452;16.994;2023-08-31T14:55:27;5.30;;;1.62;;
75628;SDS011;64213;46.452;16.994;2023-08-31T14:58:30;5.97;;;1.95;;
75628;SDS011;64213;46.452;16.994;2023-08-31T15:01:32;5.50;;;1.50;;
75628;SDS011;64213;46.452;16.994;2023-08-31T15:04:34;6.15;;;2.00;;
75628;SDS011;64213;46.452;16.994;2023-08-31T15:07:38;5.90;;;1.83;;
75628;SDS011;64213;46.452;16.994;2023-08-31T15:10:41;5.80;;;1.80;;
75628;SDS011;64213;46.452;16.994;2023-08-31T15:13:43;5.57;;;1.60;;
75628;SDS011;64213;46.452;16.994;2023-08-31T15:16:46;6.90;;;1.60;;
75628;SDS011;64213;46.452;16.994;2023-08-31T15:19:50;6.20;;;2.10;;
75628;SDS011;64213;46.452;16.994;2023-08-31T15:22:54;5.82;;;2.00;;
75628;SDS011;64213;46.452;16.994;2023-08-31T15:26:01;6.37;;;2.30;;
75628;SDS011;64213;46.452;16.994;2023-08-31T15:29:08;6.43;;;1.92;;
75628;SDS011;64213;46.452;16.994;2023-08-31T15:32:11;6.70;;;1.77;;
75628;SDS011;64213;46.452;16.994;2023-08-31T15:35:14;7.20;;;1.90;;
75628;SDS011;64213;46.452;16.994;2023-08-31T15:38:18;6.10;;;2.05;;
75628;SDS011;64213;46.452;16.994;2023-08-31T15:41:20;5.82;;;1.87;;
75628;SDS011;64213;46.452;16.994;2023-08-31T15:44:24;6.07;;;1.70;;
75628;SDS011;64213;46.452;16.994;2023-08-31T15:47:26;5.17;;;1.60;;
75628;SDS011;64213;46.452;16.994;2023-08-31T15:50:29;6.82;;;1.67;;
75628;SDS011;64213;46.452;16.994;2023-08-31T15:53:32;8.70;;;3.37;;
75628;SDS011;64213;46.452;16.994;2023-08-31T15:56:35;5.68;;;1.90;;
75628;SDS011;64213;46.452;16.994;2023-08-31T15:59:38;5.70;;;2.03;;
75628;SDS011;64213;46.452;16.994;2023-08-31T16:02:40;6.23;;;1.80;;
75628;SDS011;64213;46.452;16.994;2023-08-31T16:05:42;6.90;;;2.17;;
75628;SDS011;64213;46.452;16.994;2023-08-31T16:08:50;6.15;;;1.83;;
75628;SDS011;64213;46.452;16.994;2023-08-31T16:11:53;5.97;;;1.92;;
75628;SDS011;64213;46.452;16.994;2023-08-31T16:14:56;6.20;;;2.20;;
75628;SDS011;64213;46.452;16.994;2023-08-31T16:17:58;6.17;;;1.80;;
75628;SDS011;64213;46.452;16.994;2023-08-31T16:21:01;5.78;;;1.70;;
75628;SDS011;64213;46.452;16.994;2023-08-31T16:24:05;6.45;;;2.10;;
75628;SDS011;64213;46.452;16.994;2023-08-31T16:27:08;6.43;;;1.90;;
75628;SDS011;64213;46.452;16.994;2023-08-31T16:30:12;5.62;;;1.70;;
75628;SDS011;64213;46.452;16.994;2023-08-31T16:33:18;6.00;;;1.90;;
75628;SDS011;64213;46.452;16.994;2023-08-31T16:36:21;6.40;;;1.90;;
75628;SDS011;64213;46.452;16.994;2023-08-31T16:39:24;6.00;;;1.70;;
75628;SDS011;64213;46.452;16.994;2023-08-31T16:42:26;7.12;;;2.00;;
75628;SDS011;64213;46.452;16.994;2023-08-31T16:45:29;6.32;;;2.10;;
75628;SDS011;64213;46.452;16.994;2023-08-31T16:48:32;6.00;;;1.90;;
75628;SDS011;64213;46.452;16.994;2023-08-31T16:51:34;6.20;;;1.85;;
75628;SDS011;64213;46.452;16.994;2023-08-31T16:54:37;7.75;;;2.00;;
75628;SDS011;64213;46.452;16.994;2023-08-31T16:57:39;6.70;;;1.77;;
75628;SDS011;64213;46.452;16.994;2023-08-31T17:00:42;6.80;;;2.28;;
75628;SDS011;64213;46.452;16.994;2023-08-31T17:03:45;7.50;;;2.20;;
75628;SDS011;64213;46.452;16.994;2023-08-31T17:06:49;7.57;;;1.95;;
75628;SDS011;64213;46.452;16.994;2023-08-31T17:09:52;6.40;;;2.40;;
75628;SDS011;64213;46.452;16.994;2023-08-31T17:12:54;7.32;;;2.55;;
75628;SDS011;64213;46.452;16.994;2023-08-31T17:15:57;7.10;;;2.10;;
75628;SDS011;64213;46.452;16.994;2023-08-31T17:18:59;8.43;;;2.10;;
75628;SDS011;64213;46.452;16.994;2023-08-31T17:22:02;7.07;;;2.20;;
75628;SDS011;64213;46.452;16.994;2023-08-31T17:25:05;6.40;;;2.08;;
75628;SDS011;64213;46.452;16.994;2023-08-31T17:28:11;7.87;;;2.28;;
75628;SDS011;64213;46.452;16.994;2023-08-31T17:31:14;9.75;;;2.00;;
75628;SDS011;64213;46.452;16.994;2023-08-31T17:34:19;7.27;;;2.03;;
75628;SDS011;64213;46.452;16.994;2023-08-31T17:37:21;6.60;;;2.40;;
75628;SDS011;64213;46.452;16.994;2023-08-31T17:40:27;6.72;;;1.87;;
75628;SDS011;64213;46.452;16.994;2023-08-31T17:43:32;7.75;;;2.20;;
75628;SDS011;64213;46.452;16.994;2023-08-31T17:46:36;7.30;;;2.62;;
75628;SDS011;64213;46.452;16.994;2023-08-31T17:49:43;7.57;;;2.80;;
75628;SDS011;64213;46.452;16.994;2023-08-31T17:52:46;9.05;;;2.72;;
75628;SDS011;64213;46.452;16.994;2023-08-31T17:55:51;8.00;;;2.83;;
75628;SDS011;64213;46.452;16.994;2023-08-31T17:58:55;8.10;;;2.37;;
75628;SDS011;64213;46.452;16.994;2023-08-31T18:01:59;7.62;;;2.30;;
75628;SDS011;64213;46.452;16.994;2023-08-31T18:05:06;7.87;;;2.20;;
75628;SDS011;64213;46.452;16.994;2023-08-31T18:08:12;7.82;;;2.50;;
75628;SDS011;64213;46.452;16.994;2023-08-31T18:11:17;8.00;;;2.85;;
75628;SDS011;64213;46.452;16.994;2023-08-31T18:14:22;9.05;;;2.92;;
75628;SDS011;64213;46.452;16.994;2023-08-31T18:17:25;9.40;;;2.65;;
75628;SDS011;64213;46.452;16.994;2023-08-31T18:20:29;7.37;;;2.43;;
75628;SDS011;64213;46.452;16.994;2023-08-31T18:23:36;7.40;;;2.10;;
75628;SDS011;64213;46.452;16.994;2023-08-31T18:26:42;7.97;;;2.28;;
75628;SDS011;64213;46.452;16.994;2023-08-31T18:29:47;7.93;;;2.62;;
75628;SDS011;64213;46.452;16.994;2023-08-31T18:32:54;7.75;;;2.58;;